createdAt,value
2019-02-19T00:09:18.483Z,29.50
2019-02-19T00:24:25.181Z,25.23
2019-02-19T00:39:31.403Z,36.03
2019-02-19T00:54:37.875Z,31.27
2019-02-19T01:09:44.192Z,32.93
2019-02-19T01:24:50.398Z,34.13
2019-02-19T01:39:56.963Z,29.33
2019-02-19T01:55:03.237Z,30.43
2019-02-19T02:10:09.491Z,37.63
2019-02-19T02:25:16.028Z,30.83
2019-02-19T02:40:22.275Z,26.03
2019-02-19T02:55:28.831Z,20.77
2019-02-19T03:10:35.276Z,20.83
2019-02-19T03:25:41.752Z,21.47
2019-02-19T03:40:48.238Z,20.87
2019-02-19T03:55:54.473Z,23.10
2019-02-19T04:11:00.945Z,24.10
2019-02-19T04:26:07.182Z,25.80
2019-02-19T04:41:13.409Z,27.63
2019-02-19T04:56:19.867Z,29.90
2019-02-19T05:11:26.082Z,21.00
2019-02-19T05:26:32.339Z,20.47
2019-02-19T05:41:38.591Z,23.07
2019-02-19T05:56:45.019Z,24.40
2019-02-19T06:11:51.248Z,26.20
2019-02-19T06:26:58.107Z,22.57
2019-02-19T06:42:04.331Z,27.47
2019-02-19T06:57:10.563Z,26.10
2019-02-19T07:12:17.094Z,15.57
2019-02-19T07:27:23.342Z,20.97
2019-02-19T07:42:29.544Z,12.60
2019-02-19T07:57:36.070Z,12.67
2019-02-19T08:12:43.811Z,14.30
2019-02-19T08:27:51.296Z,12.53
2019-02-19T08:42:57.588Z,14.40
2019-02-19T08:58:04.121Z,13.03
2019-02-19T09:13:10.325Z,14.13
2019-02-19T09:28:16.701Z,13.07
2019-02-19T09:43:23.157Z,17.30
2019-02-19T09:58:29.650Z,16.67
2019-02-19T10:13:36.112Z,17.87
2019-02-19T10:28:42.318Z,19.20
2019-02-19T10:43:48.549Z,15.30
2019-02-19T10:58:54.770Z,19.42
2019-02-19T11:14:00.993Z,20.27
2019-02-19T11:29:08.438Z,20.07
2019-02-19T11:44:14.654Z,22.13
2019-02-19T11:59:21.099Z,14.13
2019-02-19T12:14:27.367Z,15.60
2019-02-19T12:29:33.602Z,24.90
2019-02-19T12:44:40.076Z,16.63
2019-02-19T12:59:46.302Z,13.53
2019-02-19T13:14:52.509Z,12.10
2019-02-19T13:29:59.027Z,12.37
2019-02-19T13:45:06.642Z,13.30
2019-02-19T14:00:19.002Z,12.33
2019-02-19T14:15:57.095Z,11.23
2019-02-19T14:31:14.806Z,33.63
2019-02-19T14:46:49.835Z,17.53
2019-02-19T15:02:25.460Z,16.13
2019-02-19T15:17:40.658Z,14.83
2019-02-19T15:32:58.026Z,19.80
2019-02-19T15:48:13.406Z,27.37
2019-02-19T16:03:36.984Z,24.57
2019-02-19T16:19:17.815Z,75.57
2019-02-19T16:34:55.875Z,28.00
2019-02-19T16:50:11.396Z,42.80
2019-02-19T17:05:54.867Z,22.13
2019-02-19T17:21:23.240Z,22.23
2019-02-19T17:36:41.564Z,19.00
2019-02-19T17:52:05.715Z,14.07
2019-02-19T18:07:46.266Z,16.07
2019-02-19T18:22:52.507Z,17.60
2019-02-19T18:37:58.784Z,11.10
2019-02-19T18:53:04.999Z,7.27
2019-02-19T19:08:11.227Z,4.53
2019-02-19T19:23:17.699Z,6.10
2019-02-19T19:38:23.996Z,3.63
2019-02-19T19:53:30.223Z,4.70
2019-02-19T20:08:36.806Z,5.67
2019-02-19T20:23:43.389Z,5.67
2019-02-19T20:38:50.046Z,3.00
2019-02-19T20:53:56.579Z,4.33
2019-02-19T21:09:03.395Z,13.40
2019-02-19T21:24:12.279Z,4.67
2019-02-19T21:39:18.887Z,5.87
2019-02-19T21:54:25.139Z,4.17
2019-02-19T22:09:32.158Z,5.37
2019-02-19T22:24:38.845Z,3.97
2019-02-19T22:39:45.146Z,3.27
2019-02-19T22:55:00.150Z,3.43
2019-02-19T23:10:06.615Z,4.30
2019-02-19T23:25:13.160Z,4.87
2019-02-19T23:40:19.447Z,5.10
2019-02-19T23:55:25.663Z,4.93
